createdAt,value
2022-07-31T00:01:53.210Z,21.20
2022-07-31T00:04:19.568Z,21.22
2022-07-31T00:06:45.938Z,21.28
2022-07-31T00:09:20.509Z,21.35
2022-07-31T00:11:38.747Z,21.58
2022-07-31T00:14:05.107Z,21.51
2022-07-31T00:16:31.498Z,21.53
2022-07-31T00:18:58.105Z,21.44
2022-07-31T00:21:24.267Z,21.36
2022-07-31T00:23:50.630Z,21.42
2022-07-31T00:26:16.994Z,21.39
2022-07-31T00:28:43.363Z,21.44
2022-07-31T00:31:09.794Z,21.65
2022-07-31T00:33:36.176Z,21.69
2022-07-31T00:36:02.542Z,21.70
2022-07-31T00:38:28.995Z,21.73
2022-07-31T00:40:55.425Z,21.83
2022-07-31T00:43:21.797Z,21.94
2022-07-31T00:45:56.266Z,21.86
2022-07-31T00:48:14.533Z,21.64
2022-07-31T00:50:40.953Z,21.62
2022-07-31T00:53:07.332Z,21.82
2022-07-31T00:55:33.715Z,21.97
2022-07-31T00:58:00.130Z,21.97
2022-07-31T01:00:26.494Z,21.90
2022-07-31T01:02:52.860Z,21.79
2022-07-31T01:05:19.230Z,21.74
2022-07-31T01:07:45.594Z,21.70
2022-07-31T01:10:11.984Z,21.68
2022-07-31T01:12:38.344Z,21.62
2022-07-31T01:15:04.779Z,21.83
2022-07-31T01:17:31.134Z,21.84
2022-07-31T01:19:57.503Z,21.71
2022-07-31T01:22:33.881Z,21.66
2022-07-31T01:24:50.274Z,21.65
2022-07-31T01:27:16.665Z,21.58
2022-07-31T01:29:43.023Z,21.64
2022-07-31T01:32:09.406Z,21.65
2022-07-31T01:34:35.828Z,21.62
2022-07-31T01:37:02.445Z,21.49
2022-07-31T01:39:33.866Z,21.36
2022-07-31T01:41:55.022Z,21.29
2022-07-31T01:44:21.456Z,21.33
2022-07-31T01:46:47.888Z,21.20
2022-07-31T01:49:14.317Z,21.09
2022-07-31T01:51:40.639Z,20.90
2022-07-31T01:54:07.004Z,20.87
2022-07-31T01:56:33.419Z,20.80
2022-07-31T01:58:59.788Z,20.76
2022-07-31T02:01:27.356Z,20.68
2022-07-31T02:03:56.197Z,20.63
2022-07-31T02:06:18.994Z,20.46
2022-07-31T02:08:45.377Z,20.49
2022-07-31T02:11:11.783Z,20.65
2022-07-31T02:13:38.174Z,20.66
2022-07-31T02:16:05.043Z,20.86
2022-07-31T02:18:31.007Z,20.93
2022-07-31T02:20:57.371Z,20.87
2022-07-31T02:23:23.875Z,20.77
2022-07-31T02:25:50.256Z,20.75
2022-07-31T02:28:16.732Z,20.68
2022-07-31T02:30:43.173Z,20.60
2022-07-31T02:33:09.607Z,20.53
2022-07-31T02:35:35.991Z,20.42
2022-07-31T02:38:02.354Z,20.38
2022-07-31T02:40:28.725Z,20.33
2022-07-31T02:42:55.237Z,20.35
2022-07-31T02:45:21.614Z,20.32
2022-07-31T02:47:47.981Z,20.22
2022-07-31T02:50:14.431Z,20.25
2022-07-31T02:52:40.799Z,20.36
2022-07-31T02:55:07.207Z,20.36
2022-07-31T02:57:33.573Z,20.39
2022-07-31T03:00:00.074Z,20.51
2022-07-31T03:02:36.894Z,20.52
2022-07-31T03:04:52.806Z,20.53
2022-07-31T03:07:19.193Z,20.43
2022-07-31T03:09:45.550Z,20.43
2022-07-31T03:12:11.960Z,20.36
2022-07-31T03:14:38.312Z,20.31
2022-07-31T03:17:04.788Z,20.48
2022-07-31T03:19:31.219Z,20.72
2022-07-31T03:21:57.605Z,20.71
2022-07-31T03:24:23.991Z,20.70
2022-07-31T03:26:50.361Z,20.68
2022-07-31T03:29:41.161Z,20.65
2022-07-31T03:31:43.146Z,20.52
2022-07-31T03:34:09.612Z,20.47
2022-07-31T03:36:35.996Z,20.33
2022-07-31T03:39:02.358Z,20.16
2022-07-31T03:41:28.809Z,20.18
2022-07-31T03:43:55.176Z,20.17
2022-07-31T03:46:21.568Z,20.32
2022-07-31T03:48:48.023Z,20.45
2022-07-31T03:51:14.333Z,20.47
2022-07-31T03:53:40.687Z,20.37
2022-07-31T03:56:07.073Z,20.51
2022-07-31T03:58:33.440Z,20.61
2022-07-31T04:00:59.838Z,20.61
2022-07-31T04:03:26.194Z,20.62
2022-07-31T04:05:52.577Z,20.53
2022-07-31T04:08:19.061Z,20.52
2022-07-31T04:10:45.425Z,20.56
2022-07-31T04:13:11.796Z,20.75
2022-07-31T04:15:38.183Z,20.72
2022-07-31T04:18:04.555Z,20.81
2022-07-31T04:20:30.939Z,20.92
2022-07-31T04:22:57.369Z,21.02
2022-07-31T04:25:23.753Z,21.16
2022-07-31T04:27:50.115Z,21.27
2022-07-31T04:30:16.552Z,21.31
2022-07-31T04:32:42.955Z,21.47
2022-07-31T04:35:09.343Z,21.35
2022-07-31T04:37:35.747Z,21.37
2022-07-31T04:40:02.113Z,21.67
2022-07-31T04:42:28.511Z,21.89
2022-07-31T04:44:54.869Z,22.13
2022-07-31T04:47:21.258Z,22.25
2022-07-31T04:49:47.705Z,22.22
2022-07-31T04:52:14.093Z,22.15
2022-07-31T04:54:40.462Z,22.11
2022-07-31T04:57:06.866Z,22.08
2022-07-31T04:59:59.485Z,21.95
2022-07-31T05:01:59.892Z,21.87
2022-07-31T05:04:26.160Z,21.78
2022-07-31T05:06:52.532Z,21.93
2022-07-31T05:09:19.622Z,22.09
2022-07-31T05:11:45.399Z,21.99
2022-07-31T05:14:11.771Z,22.07
2022-07-31T05:16:38.266Z,22.21
2022-07-31T05:19:04.637Z,22.30
2022-07-31T05:21:31.006Z,22.30
2022-07-31T05:23:57.368Z,22.33
2022-07-31T05:26:23.738Z,22.38
2022-07-31T05:28:50.997Z,22.47
2022-07-31T05:31:16.659Z,22.57
2022-07-31T05:33:42.794Z,22.72
2022-07-31T05:36:09.219Z,22.64
2022-07-31T05:38:35.650Z,22.57
2022-07-31T05:41:02.025Z,22.57
2022-07-31T05:43:28.412Z,22.66
2022-07-31T05:45:54.849Z,23.01
2022-07-31T05:48:21.233Z,23.55
2022-07-31T05:50:47.638Z,23.82
2022-07-31T05:53:14.000Z,24.83
2022-07-31T05:55:40.370Z,24.69
2022-07-31T05:58:06.806Z,24.47
2022-07-31T06:00:33.213Z,25.29
2022-07-31T06:02:59.533Z,24.83
2022-07-31T06:05:25.902Z,24.01
2022-07-31T06:07:52.293Z,23.62
2022-07-31T06:10:18.767Z,23.21
2022-07-31T06:12:45.231Z,22.95
2022-07-31T06:15:11.652Z,22.85
2022-07-31T06:17:43.725Z,22.80
2022-07-31T06:20:04.442Z,23.30
2022-07-31T06:22:30.798Z,23.79
2022-07-31T06:24:57.256Z,23.70
2022-07-31T06:27:33.631Z,23.93
2022-07-31T06:29:50.099Z,25.17
2022-07-31T06:32:16.497Z,27.16
2022-07-31T06:34:42.898Z,27.73
2022-07-31T06:37:09.257Z,27.47
2022-07-31T06:39:54.715Z,26.49
2022-07-31T06:42:02.231Z,27.04
2022-07-31T06:44:28.420Z,28.07
2022-07-31T06:46:54.854Z,27.76
2022-07-31T06:49:21.319Z,27.63
2022-07-31T06:51:47.655Z,27.82
2022-07-31T06:54:14.025Z,27.89
2022-07-31T06:56:40.395Z,28.90
2022-07-31T06:59:06.816Z,29.04
2022-07-31T07:01:33.234Z,29.68
2022-07-31T07:03:59.580Z,29.91
2022-07-31T07:06:26.013Z,29.32
2022-07-31T07:08:52.554Z,28.20
2022-07-31T07:11:18.911Z,26.89
2022-07-31T07:13:46.838Z,26.73
2022-07-31T07:16:12.691Z,26.85
2022-07-31T07:18:39.066Z,26.13
2022-07-31T07:21:05.531Z,27.81
2022-07-31T07:23:31.956Z,29.28
2022-07-31T07:25:58.359Z,29.43
2022-07-31T07:28:30.255Z,28.95
2022-07-31T07:30:51.134Z,29.28
2022-07-31T07:33:40.902Z,28.90
2022-07-31T07:35:43.905Z,29.26
2022-07-31T07:38:10.294Z,29.69
2022-07-31T07:40:36.680Z,28.59
2022-07-31T07:43:03.445Z,28.60
2022-07-31T07:45:29.487Z,28.93
2022-07-31T07:48:06.025Z,29.54
2022-07-31T07:50:22.401Z,30.42
2022-07-31T07:52:48.701Z,30.25
2022-07-31T07:55:15.113Z,29.34
2022-07-31T07:57:41.496Z,28.04
2022-07-31T08:00:07.870Z,26.84
2022-07-31T08:02:34.302Z,27.01
2022-07-31T08:05:00.719Z,27.56
2022-07-31T08:07:42.245Z,28.11
2022-07-31T08:09:53.479Z,27.44
2022-07-31T08:12:19.871Z,27.29
2022-07-31T08:14:46.264Z,27.94
2022-07-31T08:17:12.629Z,27.43
2022-07-31T08:19:39.105Z,27.00
2022-07-31T08:22:06.982Z,27.28
2022-07-31T08:24:32.983Z,28.95
2022-07-31T08:26:59.358Z,29.42
2022-07-31T08:29:27.527Z,28.24
2022-07-31T08:31:52.103Z,27.99
2022-07-31T08:34:31.711Z,27.79
2022-07-31T08:36:44.919Z,28.87
2022-07-31T08:39:11.282Z,28.46
2022-07-31T08:41:37.662Z,27.48
2022-07-31T08:44:04.665Z,27.02
2022-07-31T08:46:30.477Z,26.96
2022-07-31T08:48:56.934Z,27.41
2022-07-31T08:51:23.240Z,28.80
2022-07-31T08:53:49.684Z,29.86
2022-07-31T08:56:16.048Z,29.97
2022-07-31T08:58:42.459Z,30.73
2022-07-31T09:01:08.991Z,30.03
2022-07-31T09:03:35.275Z,28.73
2022-07-31T09:06:01.684Z,29.45
2022-07-31T09:08:28.044Z,28.45
2022-07-31T09:10:54.507Z,27.73
2022-07-31T09:13:20.886Z,27.44
2022-07-31T09:15:47.375Z,28.37
2022-07-31T09:18:13.753Z,28.64
2022-07-31T09:20:40.146Z,29.85
2022-07-31T09:23:06.550Z,29.05
2022-07-31T09:25:33.011Z,28.07
2022-07-31T09:27:59.414Z,27.78
2022-07-31T09:30:25.784Z,27.46
2022-07-31T09:32:52.170Z,27.72
2022-07-31T09:35:18.630Z,27.92
2022-07-31T09:37:44.971Z,28.17
2022-07-31T09:40:11.361Z,28.54
2022-07-31T09:42:38.210Z,28.55
2022-07-31T09:45:04.204Z,27.79
2022-07-31T09:47:30.635Z,27.73
2022-07-31T09:49:57.129Z,27.72
2022-07-31T09:52:23.495Z,27.98
2022-07-31T09:54:49.895Z,28.04
2022-07-31T09:57:16.253Z,27.74
2022-07-31T09:59:42.638Z,27.44
2022-07-31T10:02:09.051Z,27.00
2022-07-31T10:04:35.420Z,27.16
2022-07-31T10:07:02.116Z,27.43
2022-07-31T10:09:28.285Z,27.98
2022-07-31T10:11:54.645Z,28.63
2022-07-31T10:14:21.034Z,29.83
2022-07-31T10:16:47.431Z,30.55
2022-07-31T10:19:13.918Z,30.94
2022-07-31T10:21:40.277Z,31.71
2022-07-31T10:24:06.704Z,31.74
2022-07-31T10:26:57.805Z,31.59
2022-07-31T10:28:59.546Z,31.51
2022-07-31T10:31:25.978Z,31.50
2022-07-31T10:33:52.348Z,31.53
2022-07-31T10:36:18.840Z,31.85
2022-07-31T10:38:45.206Z,31.78
2022-07-31T10:41:11.637Z,31.46
2022-07-31T10:43:38.006Z,32.02
2022-07-31T10:46:04.364Z,32.10
2022-07-31T10:48:30.798Z,32.01
2022-07-31T10:50:57.158Z,32.14
2022-07-31T10:53:50.096Z,32.13
2022-07-31T10:55:49.993Z,31.98
2022-07-31T10:58:16.379Z,31.73
2022-07-31T11:00:42.758Z,32.15
2022-07-31T11:03:11.896Z,31.76
2022-07-31T11:06:01.518Z,31.61
2022-07-31T11:08:01.880Z,32.05
2022-07-31T11:10:28.264Z,31.92
2022-07-31T11:12:54.645Z,32.03
2022-07-31T11:15:21.011Z,32.01
2022-07-31T11:18:23.397Z,32.12
2022-07-31T11:20:13.821Z,31.76
2022-07-31T11:22:40.189Z,31.75
2022-07-31T11:25:06.548Z,31.76
2022-07-31T11:27:32.949Z,32.07
2022-07-31T11:30:04.130Z,31.85
2022-07-31T11:32:26.604Z,31.32
2022-07-31T11:34:52.134Z,31.44
2022-07-31T11:37:18.479Z,31.13
2022-07-31T11:39:51.353Z,31.27
2022-07-31T11:42:11.252Z,31.38
2022-07-31T11:44:37.614Z,31.56
2022-07-31T11:47:04.298Z,31.13
2022-07-31T11:49:48.174Z,31.49
2022-07-31T11:51:56.742Z,31.70
2022-07-31T11:54:23.126Z,31.81
2022-07-31T11:56:49.491Z,31.68
2022-07-31T11:59:44.919Z,31.68
2022-07-31T12:01:42.249Z,31.71
2022-07-31T12:04:09.142Z,31.63
2022-07-31T12:06:36.422Z,31.51
2022-07-31T12:09:01.386Z,31.28
2022-07-31T12:11:27.769Z,31.51
2022-07-31T12:13:54.133Z,31.65
2022-07-31T12:16:20.553Z,31.78
2022-07-31T12:18:46.931Z,31.63
2022-07-31T12:21:13.418Z,31.57
2022-07-31T12:23:40.428Z,31.68
2022-07-31T12:26:06.153Z,31.29
2022-07-31T12:28:32.568Z,31.04
2022-07-31T12:30:58.961Z,31.06
2022-07-31T12:33:25.403Z,30.82
2022-07-31T12:35:55.974Z,31.03
2022-07-31T12:38:37.702Z,30.86
2022-07-31T12:40:44.551Z,31.09
2022-07-31T12:43:10.935Z,31.23
2022-07-31T12:45:37.329Z,31.52
2022-07-31T12:48:03.768Z,31.54
2022-07-31T12:50:30.158Z,31.18
2022-07-31T12:52:56.554Z,30.98
2022-07-31T12:55:22.917Z,30.66
2022-07-31T12:57:50.706Z,30.66
2022-07-31T13:00:15.700Z,30.69
2022-07-31T13:02:42.085Z,30.60
2022-07-31T13:05:08.455Z,30.55
2022-07-31T13:07:34.854Z,30.50
2022-07-31T13:10:20.822Z,30.27
2022-07-31T13:12:27.620Z,30.15
2022-07-31T13:14:54.047Z,29.96
2022-07-31T13:17:20.409Z,29.94
2022-07-31T13:19:46.889Z,29.81
2022-07-31T13:22:13.328Z,29.60
2022-07-31T13:24:39.750Z,29.53
2022-07-31T13:27:06.489Z,29.37
2022-07-31T13:29:32.479Z,29.35
2022-07-31T13:31:58.852Z,29.85
2022-07-31T13:34:25.227Z,30.01
2022-07-31T13:36:51.589Z,29.85
2022-07-31T13:39:17.955Z,29.72
2022-07-31T13:41:44.317Z,29.76
2022-07-31T13:44:10.815Z,29.52
2022-07-31T13:46:37.179Z,29.54
2022-07-31T13:49:03.706Z,29.56
2022-07-31T13:51:30.158Z,29.42
2022-07-31T13:53:56.440Z,29.26
2022-07-31T13:56:39.375Z,29.25
2022-07-31T13:58:49.309Z,29.23
2022-07-31T14:01:15.719Z,29.12
2022-07-31T14:03:42.162Z,29.21
2022-07-31T14:06:08.558Z,29.12
2022-07-31T14:08:49.661Z,29.18
2022-07-31T14:11:01.469Z,29.18
2022-07-31T14:13:28.162Z,28.98
2022-07-31T14:15:54.529Z,28.87
2022-07-31T14:18:20.972Z,28.92
2022-07-31T14:20:47.353Z,29.07
2022-07-31T14:23:13.790Z,28.93
2022-07-31T14:25:40.169Z,28.91
2022-07-31T14:28:06.570Z,29.03
2022-07-31T14:30:32.939Z,29.13
2022-07-31T14:32:59.299Z,29.13
2022-07-31T14:35:25.694Z,29.16
2022-07-31T14:37:52.057Z,29.17
2022-07-31T14:40:18.472Z,29.04
2022-07-31T14:42:44.902Z,28.96
2022-07-31T14:45:11.301Z,28.99
2022-07-31T14:47:37.667Z,28.94
2022-07-31T14:50:08.853Z,28.86
2022-07-31T14:52:30.562Z,28.90
2022-07-31T14:54:56.900Z,28.91
2022-07-31T14:57:23.304Z,29.05
2022-07-31T14:59:49.666Z,29.02
2022-07-31T15:02:21.488Z,28.87
2022-07-31T15:04:42.498Z,28.92
2022-07-31T15:07:33.647Z,28.94
2022-07-31T15:09:35.280Z,28.90
2022-07-31T15:12:02.112Z,28.79
2022-07-31T15:14:28.016Z,28.81
2022-07-31T15:16:54.389Z,28.67
2022-07-31T15:19:20.788Z,28.71
2022-07-31T15:22:10.210Z,28.68
2022-07-31T15:24:13.586Z,28.59
2022-07-31T15:26:39.943Z,28.54
2022-07-31T15:29:06.425Z,28.63
2022-07-31T15:31:32.802Z,28.56
2022-07-31T15:33:59.174Z,28.59
2022-07-31T15:36:25.543Z,28.60
2022-07-31T15:38:51.947Z,28.68
2022-07-31T15:41:18.851Z,28.67
2022-07-31T15:43:44.777Z,28.66
2022-07-31T15:46:11.154Z,28.61
2022-07-31T15:48:37.520Z,28.61
2022-07-31T15:51:03.906Z,28.64
2022-07-31T15:53:30.253Z,28.59
2022-07-31T15:55:56.634Z,28.47
2022-07-31T15:58:23.026Z,28.39
2022-07-31T16:00:50.385Z,28.44
2022-07-31T16:03:18.001Z,28.44
2022-07-31T16:05:43.133Z,28.44
2022-07-31T16:08:30.276Z,28.35
2022-07-31T16:10:38.044Z,28.33
2022-07-31T16:13:04.566Z,28.32
2022-07-31T16:15:30.944Z,28.23
2022-07-31T16:17:57.432Z,28.18
2022-07-31T16:20:26.067Z,28.20
2022-07-31T16:22:54.239Z,28.19
2022-07-31T16:25:16.655Z,28.19
2022-07-31T16:27:43.064Z,28.11
2022-07-31T16:30:09.433Z,28.08
2022-07-31T16:32:35.852Z,28.07
2022-07-31T16:35:02.258Z,28.12
2022-07-31T16:37:51.680Z,28.11
2022-07-31T16:39:55.014Z,28.01
2022-07-31T16:42:21.415Z,27.98
2022-07-31T16:44:47.887Z,28.01
2022-07-31T16:47:14.259Z,28.02
2022-07-31T16:49:40.797Z,27.95
2022-07-31T16:52:07.156Z,27.91
2022-07-31T16:54:33.547Z,27.85
2022-07-31T16:56:59.952Z,27.77
2022-07-31T16:59:26.385Z,27.73
2022-07-31T17:02:01.445Z,27.68
2022-07-31T17:04:27.531Z,27.66
2022-07-31T17:06:53.920Z,27.64
2022-07-31T17:09:21.205Z,27.58
2022-07-31T17:11:47.992Z,27.62
2022-07-31T17:14:14.409Z,27.64
2022-07-31T17:16:46.336Z,27.60
2022-07-31T17:19:07.279Z,27.53
2022-07-31T17:21:33.688Z,27.42
2022-07-31T17:24:00.054Z,27.35
2022-07-31T17:26:26.433Z,27.27
2022-07-31T17:28:52.865Z,27.28
2022-07-31T17:31:19.343Z,27.18
2022-07-31T17:33:58.434Z,27.04
2022-07-31T17:36:12.185Z,27.01
2022-07-31T17:38:38.544Z,27.05
2022-07-31T17:41:05.067Z,26.94
2022-07-31T17:43:31.425Z,26.91
2022-07-31T17:46:05.321Z,26.79
2022-07-31T17:48:24.468Z,26.72
2022-07-31T17:50:54.115Z,26.73
2022-07-31T17:53:17.334Z,26.74
2022-07-31T17:55:43.702Z,26.59
2022-07-31T17:58:10.210Z,26.58
2022-07-31T18:00:36.573Z,26.53
2022-07-31T18:03:02.931Z,26.52
2022-07-31T18:05:29.330Z,26.41
2022-07-31T18:07:55.725Z,26.40
2022-07-31T18:10:38.599Z,26.34
2022-07-31T18:12:57.484Z,26.32
2022-07-31T18:15:14.935Z,26.30
2022-07-31T18:17:41.297Z,26.28
2022-07-31T18:20:07.671Z,26.19
2022-07-31T18:22:35.102Z,26.13
2022-07-31T18:25:00.518Z,26.12
2022-07-31T18:27:26.882Z,26.11
2022-07-31T18:29:56.095Z,26.10
2022-07-31T18:32:19.637Z,26.07
2022-07-31T18:34:46.021Z,26.00
2022-07-31T18:37:12.401Z,25.99
2022-07-31T18:39:48.706Z,25.96
2022-07-31T18:42:05.441Z,25.90
2022-07-31T18:44:31.632Z,25.85
2022-07-31T18:46:58.190Z,25.91
2022-07-31T18:51:00.224Z,25.80
2022-07-31T18:51:50.991Z,25.74
2022-07-31T18:54:17.413Z,25.72
2022-07-31T18:56:43.777Z,25.66
2022-07-31T18:59:10.173Z,25.63
2022-07-31T19:01:36.626Z,25.53
2022-07-31T19:04:03.068Z,25.49
2022-07-31T19:06:29.426Z,25.43
2022-07-31T19:08:55.793Z,25.39
2022-07-31T19:11:22.176Z,25.43
2022-07-31T19:13:48.707Z,25.41
2022-07-31T19:16:15.939Z,25.38
2022-07-31T19:18:41.434Z,25.38
2022-07-31T19:21:23.086Z,25.40
2022-07-31T19:23:34.193Z,25.33
2022-07-31T19:26:03.661Z,25.19
2022-07-31T19:28:27.313Z,25.16
2022-07-31T19:30:53.466Z,25.12
2022-07-31T19:33:19.959Z,25.14
2022-07-31T19:35:56.981Z,25.08
2022-07-31T19:38:12.829Z,25.02
2022-07-31T19:40:39.266Z,25.02
2022-07-31T19:43:05.697Z,24.85
2022-07-31T19:45:32.052Z,24.86
2022-07-31T19:47:58.417Z,24.82
2022-07-31T19:50:24.818Z,24.86
2022-07-31T19:52:51.221Z,24.76
2022-07-31T19:55:17.577Z,24.79
2022-07-31T19:57:44.086Z,24.65
2022-07-31T20:00:10.448Z,24.71
2022-07-31T20:02:36.832Z,24.66
2022-07-31T20:05:03.199Z,24.63
2022-07-31T20:07:32.703Z,24.74
2022-07-31T20:09:56.047Z,24.63
2022-07-31T20:12:22.418Z,24.57
2022-07-31T20:14:48.819Z,24.52
2022-07-31T20:17:15.207Z,24.45
2022-07-31T20:20:04.686Z,24.32
2022-07-31T20:22:08.060Z,24.31
2022-07-31T20:24:34.330Z,24.36
2022-07-31T20:27:00.801Z,24.35
2022-07-31T20:29:27.304Z,24.26
2022-07-31T20:31:53.673Z,24.26
2022-07-31T20:34:20.069Z,24.26
2022-07-31T20:36:46.475Z,24.15
2022-07-31T20:39:12.839Z,24.13
2022-07-31T20:41:39.202Z,24.06
2022-07-31T20:44:05.573Z,24.05
2022-07-31T20:46:32.026Z,23.98
2022-07-31T20:48:58.442Z,23.99
2022-07-31T20:51:24.759Z,24.04
2022-07-31T20:53:51.219Z,23.95
2022-07-31T20:56:17.656Z,23.84
2022-07-31T20:58:49.469Z,23.69
2022-07-31T21:01:10.766Z,23.70
2022-07-31T21:03:36.991Z,23.76
2022-07-31T21:06:03.398Z,23.76
2022-07-31T21:08:29.789Z,23.66
2022-07-31T21:10:56.258Z,23.60
2022-07-31T21:13:22.640Z,23.61
2022-07-31T21:15:49.006Z,23.68
2022-07-31T21:18:15.479Z,23.70
2022-07-31T21:20:49.874Z,23.61
2022-07-31T21:23:08.265Z,23.58
2022-07-31T21:25:34.755Z,23.57
2022-07-31T21:28:01.187Z,23.62
2022-07-31T21:30:27.622Z,23.60
2022-07-31T21:32:53.981Z,23.53
2022-07-31T21:35:36.342Z,23.55
2022-07-31T21:37:46.821Z,23.54
2022-07-31T21:40:13.256Z,23.57
2022-07-31T21:42:41.954Z,23.59
2022-07-31T21:45:06.015Z,23.55
2022-07-31T21:47:52.982Z,23.48
2022-07-31T21:49:58.828Z,23.44
2022-07-31T21:52:25.213Z,23.46
2022-07-31T21:54:51.644Z,23.54
2022-07-31T21:57:18.076Z,23.49
2022-07-31T21:59:44.512Z,23.37
2022-07-31T22:02:11.124Z,23.30
2022-07-31T22:04:37.267Z,23.29
2022-07-31T22:07:03.651Z,23.27
2022-07-31T22:09:30.073Z,23.25
2022-07-31T22:12:05.773Z,23.11
2022-07-31T22:14:22.864Z,22.92
2022-07-31T22:16:49.337Z,22.75
2022-07-31T22:19:15.772Z,22.73
2022-07-31T22:21:42.132Z,22.75
2022-07-31T22:24:08.536Z,22.68
2022-07-31T22:26:35.030Z,22.69
2022-07-31T22:29:01.401Z,22.76
2022-07-31T22:31:27.756Z,22.68
2022-07-31T22:33:54.166Z,22.68
2022-07-31T22:36:20.741Z,22.57
2022-07-31T22:38:47.112Z,22.61
2022-07-31T22:41:13.485Z,22.54
2022-07-31T22:44:12.756Z,22.59
2022-07-31T22:46:06.259Z,22.48
2022-07-31T22:48:32.667Z,22.43
2022-07-31T22:50:59.025Z,22.38
2022-07-31T22:53:25.523Z,22.36
2022-07-31T22:55:51.902Z,22.30
2022-07-31T22:58:18.265Z,22.39
2022-07-31T23:00:44.635Z,22.44
2022-07-31T23:03:11.055Z,22.44
2022-07-31T23:06:28.110Z,22.37
2022-07-31T23:08:03.820Z,22.13
2022-07-31T23:10:30.176Z,22.14
2022-07-31T23:12:56.588Z,22.32
2022-07-31T23:15:22.956Z,22.32
2022-07-31T23:17:49.320Z,22.36
2022-07-31T23:20:15.777Z,22.45
2022-07-31T23:22:42.212Z,22.47
2022-07-31T23:25:08.568Z,22.52
2022-07-31T23:27:34.955Z,22.39
2022-07-31T23:30:01.317Z,22.37
2022-07-31T23:32:27.841Z,22.47
2022-07-31T23:34:54.218Z,22.47
2022-07-31T23:37:20.609Z,22.46
2022-07-31T23:39:47.023Z,22.44
2022-07-31T23:42:13.456Z,22.45
2022-07-31T23:44:41.007Z,22.56
2022-07-31T23:47:06.190Z,22.54
2022-07-31T23:49:32.625Z,22.20
2022-07-31T23:51:59.000Z,21.91
2022-07-31T23:54:25.356Z,21.71
2022-07-31T23:56:51.763Z,21.68
2022-07-31T23:59:18.142Z,21.61
